createdAt,value
2023-03-17T00:03:01.384Z,99794.00
2023-03-17T00:08:02.566Z,99784.06
2023-03-17T00:13:03.852Z,99784.63
2023-03-17T00:18:05.028Z,99782.06
2023-03-17T00:23:06.242Z,99788.91
2023-03-17T00:28:08.037Z,99780.56
2023-03-17T00:33:09.271Z,99788.41
2023-03-17T00:38:10.457Z,99806.91
2023-03-17T00:43:11.732Z,99817.88
2023-03-17T00:48:13.394Z,99830.78
2023-03-17T00:53:14.860Z,99834.56
2023-03-17T00:58:16.139Z,99822.50
2023-03-17T01:03:17.309Z,99823.50
2023-03-17T01:08:18.478Z,99824.56
2023-03-17T01:13:19.670Z,99832.63
2023-03-17T01:18:21.264Z,99833.97
2023-03-17T01:23:22.557Z,99828.97
2023-03-17T01:28:24.451Z,99817.50
2023-03-17T01:33:26.408Z,99810.16
2023-03-17T01:38:27.554Z,99808.06
2023-03-17T01:43:29.325Z,99784.31
2023-03-17T01:48:31.439Z,99768.13
2023-03-17T01:53:33.560Z,99759.84
2023-03-17T01:58:35.323Z,99753.44
2023-03-17T02:03:36.493Z,99743.97
2023-03-17T02:08:37.647Z,99745.75
2023-03-17T02:13:38.945Z,99743.25
2023-03-17T02:18:40.205Z,99729.69
2023-03-17T02:23:41.451Z,99725.03
2023-03-17T02:28:45.902Z,99707.59
2023-03-17T02:33:47.150Z,99702.22
2023-03-17T02:38:48.365Z,99714.81
2023-03-17T02:43:49.631Z,99704.38
2023-03-17T02:48:50.841Z,99709.09
2023-03-17T02:53:52.078Z,99728.56
2023-03-17T02:58:53.259Z,99742.34
2023-03-17T03:03:54.465Z,99730.09
2023-03-17T03:08:55.758Z,99720.50
2023-03-17T03:13:56.916Z,99721.84
2023-03-17T03:18:58.359Z,99739.63
2023-03-17T03:23:59.531Z,99742.28
2023-03-17T03:29:00.858Z,99727.44
2023-03-17T03:34:02.074Z,99722.28
2023-03-17T03:39:03.254Z,99724.13
2023-03-17T03:44:04.513Z,99708.78
2023-03-17T03:49:05.734Z,99700.22
2023-03-17T03:54:07.114Z,99695.00
2023-03-17T03:59:09.689Z,99699.78
2023-03-17T04:04:10.869Z,99719.44
2023-03-17T04:09:13.289Z,99714.22
2023-03-17T04:14:14.865Z,99722.22
2023-03-17T04:19:16.325Z,99720.28
2023-03-17T04:24:17.597Z,99711.41
2023-03-17T04:29:19.003Z,99708.00
2023-03-17T04:34:20.241Z,99711.66
2023-03-17T04:39:21.464Z,99713.25
2023-03-17T04:44:22.614Z,99727.09
2023-03-17T04:49:23.825Z,99719.31
2023-03-17T04:54:25.141Z,99698.47
2023-03-17T04:59:26.726Z,99707.09
2023-03-17T05:04:31.516Z,99693.25
2023-03-17T05:09:33.149Z,99690.69
2023-03-17T05:14:34.403Z,99699.28
2023-03-17T05:19:35.904Z,99697.22
2023-03-17T05:24:37.069Z,99699.56
2023-03-17T05:29:38.693Z,99696.13
2023-03-17T05:34:39.896Z,99707.50
2023-03-17T05:39:42.033Z,99702.78
2023-03-17T05:44:43.228Z,99698.56
2023-03-17T05:49:44.472Z,99702.78
2023-03-17T05:54:48.831Z,99696.44
2023-03-17T05:59:50.989Z,99682.91
2023-03-17T06:04:52.243Z,99689.66
2023-03-17T06:09:53.761Z,99695.34
2023-03-17T06:14:55.081Z,99697.38
2023-03-17T06:19:56.310Z,99701.44
2023-03-17T06:24:57.487Z,99695.88
2023-03-17T06:30:00.273Z,99701.75
2023-03-17T06:35:01.524Z,99695.84
2023-03-17T06:40:04.393Z,99702.50
2023-03-17T06:45:05.585Z,99697.16
2023-03-17T06:50:06.759Z,99686.00
2023-03-17T06:55:08.542Z,99685.63
2023-03-17T07:00:09.695Z,99692.28
2023-03-17T07:05:12.550Z,99692.41
2023-03-17T07:10:17.215Z,99700.94
2023-03-17T07:15:18.928Z,99694.31
2023-03-17T07:20:20.132Z,99703.59
2023-03-17T07:25:22.418Z,99705.09
2023-03-17T07:30:23.567Z,99698.28
2023-03-17T07:35:24.837Z,99696.69
2023-03-17T07:40:26.661Z,99677.22
2023-03-17T07:45:28.009Z,99667.16
2023-03-17T07:50:29.342Z,99674.50
2023-03-17T07:55:30.735Z,99683.09
2023-03-17T08:00:32.523Z,99681.41
2023-03-17T08:05:34.359Z,99690.84
2023-03-17T08:10:36.120Z,99692.25
2023-03-17T08:15:37.571Z,99692.03
2023-03-17T08:20:39.066Z,99689.75
2023-03-17T08:25:40.259Z,99682.13
2023-03-17T08:30:42.366Z,99688.72
2023-03-17T08:35:43.722Z,99695.44
2023-03-17T08:40:44.894Z,99701.84
2023-03-17T08:45:46.199Z,99698.34
2023-03-17T08:50:47.414Z,99687.22
2023-03-17T08:55:48.664Z,99695.22
2023-03-17T09:00:49.953Z,99671.13
2023-03-17T09:05:51.387Z,99655.59
2023-03-17T09:10:53.083Z,99665.03
2023-03-17T09:15:54.357Z,99669.66
2023-03-17T09:20:56.411Z,99685.78
2023-03-17T09:25:57.592Z,99703.44
2023-03-17T09:30:59.143Z,99695.16
2023-03-17T09:36:00.601Z,99687.38
2023-03-17T09:41:01.848Z,99686.38
2023-03-17T09:46:03.208Z,99676.09
2023-03-17T09:51:04.983Z,99661.38
2023-03-17T09:56:06.567Z,99668.25
2023-03-17T10:01:07.742Z,99673.78
2023-03-17T10:06:10.466Z,99664.97
2023-03-17T10:11:14.781Z,99665.81
2023-03-17T10:16:15.997Z,99647.16
2023-03-17T10:21:17.250Z,99644.88
2023-03-17T10:26:18.512Z,99655.72
2023-03-17T10:31:19.926Z,99661.50
2023-03-17T10:36:21.401Z,99662.56
2023-03-17T10:41:23.061Z,99659.22
2023-03-17T10:46:25.062Z,99658.91
2023-03-17T10:51:26.410Z,99650.00
2023-03-17T10:56:27.681Z,99653.09
2023-03-17T11:01:29.345Z,99643.13
2023-03-17T11:06:30.594Z,99629.81
2023-03-17T11:11:33.114Z,99624.00
2023-03-17T11:16:34.666Z,99624.63
2023-03-17T11:21:35.923Z,99628.28
2023-03-17T11:26:37.310Z,99625.25
2023-03-17T11:31:38.480Z,99622.94
2023-03-17T11:36:39.721Z,99608.38
2023-03-17T11:41:41.689Z,99606.88
2023-03-17T11:46:42.936Z,99608.28
2023-03-17T11:51:45.234Z,99598.19
2023-03-17T11:56:46.422Z,99588.91
2023-03-17T12:01:47.633Z,99589.03
2023-03-17T12:06:50.601Z,99573.78
2023-03-17T12:11:51.864Z,99586.50
2023-03-17T12:16:53.042Z,99580.88
2023-03-17T12:21:54.399Z,99575.44
2023-03-17T12:26:55.782Z,99589.81
2023-03-17T12:31:57.003Z,99586.72
2023-03-17T12:36:58.144Z,99583.94
2023-03-17T12:41:59.750Z,99567.41
2023-03-17T12:47:01.178Z,99564.31
2023-03-17T12:52:02.844Z,99561.69
2023-03-17T12:57:04.070Z,99550.13
2023-03-17T13:02:06.036Z,99545.22
2023-03-17T13:07:07.313Z,99536.38
2023-03-17T13:12:08.677Z,99530.41
2023-03-17T13:17:09.847Z,99535.72
2023-03-17T13:22:11.573Z,99534.28
2023-03-17T13:27:12.927Z,99513.38
2023-03-17T13:32:14.439Z,99517.72
2023-03-17T13:37:15.602Z,99509.31
2023-03-17T13:42:18.723Z,99523.69
2023-03-17T13:47:20.430Z,99507.53
2023-03-17T13:52:21.822Z,99512.63
2023-03-17T13:57:23.026Z,99514.81
2023-03-17T14:02:24.819Z,99518.50
2023-03-17T14:07:25.984Z,99509.72
2023-03-17T14:12:27.220Z,99516.69
2023-03-17T14:17:28.441Z,99502.22
2023-03-17T14:22:29.619Z,99495.13
2023-03-17T14:27:30.910Z,99499.81
2023-03-17T14:32:32.270Z,99496.03
2023-03-17T14:37:33.606Z,99498.84
2023-03-17T14:42:34.789Z,99489.50
2023-03-17T14:47:37.197Z,99488.97
2023-03-17T14:52:41.095Z,99500.28
2023-03-17T14:57:42.326Z,99507.63
2023-03-17T15:02:44.223Z,99496.28
2023-03-17T15:07:45.585Z,99493.13
2023-03-17T15:12:46.805Z,99519.88
2023-03-17T15:17:47.935Z,99502.91
2023-03-17T15:22:49.289Z,99497.47
2023-03-17T15:27:50.644Z,99494.56
2023-03-17T15:32:51.977Z,99499.69
2023-03-17T15:37:53.210Z,99491.59
2023-03-17T15:42:54.377Z,99495.84
2023-03-17T15:47:55.633Z,99513.44
2023-03-17T15:52:57.065Z,99526.16
2023-03-17T15:57:58.319Z,99525.31
2023-03-17T16:02:59.621Z,99515.22
2023-03-17T16:08:00.772Z,99527.81
2023-03-17T16:13:02.008Z,99493.88
2023-03-17T16:18:04.058Z,99475.06
2023-03-17T16:23:05.261Z,99501.34
2023-03-17T16:28:06.400Z,99512.84
2023-03-17T16:33:07.598Z,99519.72
2023-03-17T16:38:08.998Z,99521.03
2023-03-17T16:43:22.549Z,99511.25
2023-03-17T16:48:25.919Z,99518.31
2023-03-17T16:53:27.115Z,99547.06
2023-03-17T16:58:28.313Z,99501.94
2023-03-17T17:03:29.579Z,99486.06
2023-03-17T17:08:31.011Z,99491.94
2023-03-17T17:13:32.440Z,99568.72
2023-03-17T17:18:35.445Z,99574.00
2023-03-17T17:23:38.597Z,99565.56
2023-03-17T17:28:40.402Z,99551.94
2023-03-17T17:33:41.606Z,99563.13
2023-03-17T17:38:42.959Z,99569.53
2023-03-17T17:43:46.053Z,99583.66
2023-03-17T17:48:47.472Z,99555.19
2023-03-17T17:53:49.886Z,99538.47
2023-03-17T17:58:51.192Z,99580.50
2023-03-17T18:03:52.440Z,99598.09
2023-03-17T18:08:55.172Z,99582.53
2023-03-17T18:13:56.380Z,99619.69
2023-03-17T18:18:57.780Z,99626.69
2023-03-17T18:23:59.517Z,99638.31
2023-03-17T18:29:01.150Z,99603.63
2023-03-17T18:34:02.345Z,99592.81
2023-03-17T18:39:04.100Z,99589.44
2023-03-17T18:44:07.312Z,99626.00
2023-03-17T18:49:08.950Z,99636.84
2023-03-17T18:54:10.968Z,99618.28
2023-03-17T18:59:12.125Z,99629.56
2023-03-17T19:04:13.456Z,99629.56
2023-03-17T19:09:14.654Z,99620.16
2023-03-17T19:14:15.860Z,99619.38
2023-03-17T19:19:17.511Z,99617.06
2023-03-17T19:24:18.803Z,99611.03
2023-03-17T19:29:20.140Z,99611.66
2023-03-17T19:34:21.407Z,99599.56
2023-03-17T19:39:22.594Z,99611.19
2023-03-17T19:44:23.811Z,99601.59
2023-03-17T19:49:25.037Z,99608.72
2023-03-17T19:54:26.269Z,99609.66
2023-03-17T19:59:27.430Z,99622.22
2023-03-17T20:04:28.673Z,99616.00
2023-03-17T20:09:30.917Z,99623.91
2023-03-17T20:14:32.430Z,99634.75
2023-03-17T20:19:33.744Z,99645.75
2023-03-17T20:24:34.904Z,99656.56
2023-03-17T20:29:36.410Z,99650.38
2023-03-17T20:34:37.660Z,99663.69
2023-03-17T20:39:38.900Z,99669.09
2023-03-17T20:44:40.092Z,99674.50
2023-03-17T20:49:42.477Z,99694.06
2023-03-17T20:54:43.758Z,99705.78
2023-03-17T20:59:45.238Z,99708.00
2023-03-17T21:04:48.068Z,99697.75
2023-03-17T21:09:49.280Z,99680.81
2023-03-17T21:14:50.648Z,99673.72
2023-03-17T21:19:51.861Z,99677.06
2023-03-17T21:24:53.090Z,99678.41
2023-03-17T21:29:54.271Z,99664.06
2023-03-17T21:34:55.618Z,99664.34
2023-03-17T21:39:56.833Z,99660.00
2023-03-17T21:44:58.031Z,99650.84
2023-03-17T21:49:59.169Z,99659.03
2023-03-17T21:55:00.363Z,99666.41
2023-03-17T22:00:01.591Z,99665.03
2023-03-17T22:05:02.711Z,99667.19
2023-03-17T22:10:06.914Z,99674.56
2023-03-17T22:15:10.155Z,99674.09
2023-03-17T22:20:11.364Z,99679.66
2023-03-17T22:25:12.560Z,99685.00
2023-03-17T22:30:14.501Z,99686.56
2023-03-17T22:35:19.123Z,99681.91
2023-03-17T22:40:20.356Z,99684.84
2023-03-17T22:45:22.165Z,99682.97
2023-03-17T22:50:23.319Z,99690.84
2023-03-17T22:55:24.633Z,99692.72
2023-03-17T23:00:25.800Z,99699.81
2023-03-17T23:05:26.993Z,99698.72
2023-03-17T23:10:28.572Z,99697.66
2023-03-17T23:15:29.773Z,99698.94
2023-03-17T23:20:31.281Z,99698.59
2023-03-17T23:25:32.665Z,99695.38
2023-03-17T23:30:34.442Z,99700.03
2023-03-17T23:35:35.932Z,99696.34
2023-03-17T23:40:37.154Z,99696.81
2023-03-17T23:45:38.832Z,99700.22
2023-03-17T23:50:40.922Z,99699.44
2023-03-17T23:55:42.096Z,99705.66
